Time;durP1;ratioP1;P1;durP2;ratioP2;P2;SDS_P1;SDS_P2;PMS_P1;PMS_P2;Temp;Humidity;BMP_temperature;BMP_pressure;BME280_temperature;BME280_humidity;BME280_pressure;Samples;Min_cycle;Max_cycle;Signal;HPM_P1;HPM_P2
2023/10/31 12:42:30;;;;;;;1.27;1.23;;;25.00;33.60;;;;;;5028272;28;20146;-47
2023/10/31 12:44:57;;;;;;;;;;;24.80;33.10;;;;;;5017604;28;20048;-45
2023/10/31 12:47:25;;;;;;;1.42;1.33;;;24.50;33.40;;;;;;5036211;28;19979;-49
2023/10/31 12:50:08;;;;;;;5.53;1.42;;;24.30;33.80;;;;;;5037747;28;20096;-51
2023/10/31 13:10:43;;;;;;;12.23;1.90;;;25.90;34.00;;;;;;5098049;27;20415;-52
2023/10/31 13:13:12;;;;;;;4.75;1.70;;;25.90;34.60;;;;;;5076119;28;20095;-51
2023/10/31 13:15:39;;;;;;;7.45;1.80;;;26.00;34.10;;;;;;5041203;28;20044;-51
2023/10/31 16:00:43;;;;;;;5.07;4.55;;;3.10;84.40;;;;;;5108791;27;20151;-79
2023/10/31 16:03:11;;;;;;;4.53;3.65;;;2.90;70.70;;;;;;5106174;28;20079;-79
2023/10/31 16:05:38;;;;;;;4.65;4.22;;;2.90;71.20;;;;;;5084146;28;20102;-78
2023/10/31 16:08:06;;;;;;;4.97;3.70;;;2.90;71.60;;;;;;5051143;28;20572;-80
2023/10/31 16:10:34;;;;;;;8.00;3.90;;;2.90;71.50;;;;;;5041899;28;20092;-79
2023/10/31 16:13:02;;;;;;;5.55;4.15;;;3.00;71.70;;;;;;5047386;28;20059;-78
2023/10/31 16:15:29;;;;;;;6.60;3.88;;;3.10;71.50;;;;;;5051631;28;20057;-80
2023/10/31 16:17:58;;;;;;;5.82;4.72;;;3.00;71.80;;;;;;5048307;28;20431;-79
2023/10/31 16:20:26;;;;;;;5.68;4.45;;;3.00;71.80;;;;;;5044291;28;20052;-79
2023/10/31 16:22:54;;;;;;;5.15;4.15;;;3.40;72.70;;;;;;5045681;28;20052;-81
2023/10/31 16:25:22;;;;;;;7.97;4.72;;;2.90;72.30;;;;;;5049778;28;20041;-81
2023/10/31 16:27:50;;;;;;;6.07;5.45;;;2.70;73.60;;;;;;5060121;28;20417;-81
2023/10/31 16:30:18;;;;;;;5.28;4.47;;;3.50;73.90;;;;;;5040111;28;20052;-79
2023/10/31 16:32:45;;;;;;;5.35;4.68;;;2.90;73.30;;;;;;5028409;28;20111;-81
2023/10/31 16:35:40;;;;;;;7.20;4.40;;;3.00;73.60;;;;;;5031380;28;20149;-81
2023/10/31 16:38:07;;;;;;;8.18;5.25;;;2.90;74.10;;;;;;5036866;28;20135;-81
2023/10/31 16:40:35;;;;;;;6.13;5.10;;;3.00;74.00;;;;;;5040028;28;20611;-80
2023/10/31 16:43:03;;;;;;;9.98;4.70;;;3.00;74.50;;;;;;5048305;28;20099;-80
2023/10/31 16:45:47;;;;;;;9.88;5.57;;;2.90;74.60;;;;;;5052242;28;20053;-82
2023/10/31 16:48:16;;;;;;;10.63;5.07;;;3.00;76.90;;;;;;5048962;28;20405;-82
2023/10/31 16:50:45;;;;;;;8.32;5.85;;;2.90;75.10;;;;;;5046507;28;20061;-80
2023/10/31 16:53:13;;;;;;;11.45;6.65;;;3.10;75.00;;;;;;5050747;28;20053;-82
2023/10/31 16:55:41;;;;;;;8.50;5.60;;;3.10;75.00;;;;;;5046693;28;20160;-81
2023/10/31 16:58:10;;;;;;;7.45;5.60;;;3.00;74.60;;;;;;5046601;28;20045;-81
2023/10/31 17:00:37;;;;;;;8.15;5.32;;;3.00;75.10;;;;;;5026741;28;20056;-80
2023/10/31 17:03:04;;;;;;;14.40;7.63;;;3.60;76.90;;;;;;5038818;28;20056;-80
2023/10/31 17:05:31;;;;;;;10.63;6.90;;;3.10;75.30;;;;;;5025118;27;20584;-79
2023/10/31 17:08:03;;;;;;;12.07;7.43;;;3.00;75.50;;;;;;5063340;28;20099;-79
2023/10/31 17:10:31;;;;;;;13.43;7.30;;;2.80;76.90;;;;;;5041198;28;20072;-80
2023/10/31 17:13:00;;;;;;;11.57;7.78;;;3.00;75.90;;;;;;5020190;28;20053;-79
2023/10/31 17:15:28;;;;;;;9.70;7.53;;;3.40;76.30;;;;;;5039963;28;20045;-80
2023/10/31 17:17:56;;;;;;;17.30;7.45;;;3.10;76.30;;;;;;5030310;28;20091;-81
2023/10/31 17:20:23;;;;;;;11.32;7.18;;;3.10;76.50;;;;;;5032898;28;20057;-80
2023/10/31 17:22:51;;;;;;;9.52;6.55;;;3.10;76.40;;;;;;5032507;28;20464;-80
2023/10/31 17:25:20;;;;;;;11.90;6.38;;;3.10;76.60;;;;;;5022107;28;20127;-79
2023/10/31 17:27:47;;;;;;;10.52;5.82;;;3.10;76.70;;;;;;5018597;28;20065;-78
2023/10/31 17:30:15;;;;;;;6.22;5.03;;;3.10;76.90;;;;;;5048518;28;20079;-76
2023/10/31 17:32:44;;;;;;;9.05;5.57;;;3.20;76.80;;;;;;5043770;28;20034;-74
2023/10/31 17:35:11;;;;;;;7.47;4.93;;;3.20;77.10;;;;;;5032625;28;20049;-76
2023/10/31 17:37:39;;;;;;;7.13;4.22;;;3.20;76.90;;;;;;5032919;28;20161;-75
2023/10/31 17:40:09;;;;;;;6.28;4.93;;;3.20;76.60;;;;;;5031999;28;20423;-75
2023/10/31 17:42:37;;;;;;;8.52;5.28;;;3.10;76.70;;;;;;5029221;28;20056;-75
2023/10/31 17:45:07;;;;;;;5.70;4.18;;;3.20;76.90;;;;;;5033204;28;20505;-76
2023/10/31 17:47:34;;;;;;;5.88;4.25;;;3.20;76.80;;;;;;5032538;28;20600;-76
2023/10/31 17:50:02;;;;;;;9.02;4.43;;;3.30;76.60;;;;;;5030168;28;20041;-75
2023/10/31 17:52:31;;;;;;;6.43;5.07;;;3.30;76.80;;;;;;4985518;28;20449;-76
2023/10/31 17:54:59;;;;;;;8.50;4.38;;;3.70;77.40;;;;;;5017712;28;20422;-76
2023/10/31 17:57:29;;;;;;;7.75;4.20;;;3.30;76.90;;;;;;5012857;28;20050;-75
2023/10/31 17:59:58;;;;;;;5.15;4.32;;;3.20;76.90;;;;;;5011007;28;20049;-76
2023/10/31 18:02:25;;;;;;;4.75;3.50;;;3.40;77.40;;;;;;5019392;28;20041;-75
2023/10/31 18:04:53;;;;;;;6.68;4.18;;;3.40;77.20;;;;;;4979932;28;20055;-75
2023/10/31 18:07:21;;;;;;;9.18;5.22;;;3.40;77.20;;;;;;5039149;28;20045;-74
2023/10/31 18:09:50;;;;;;;11.23;6.40;;;3.50;77.10;;;;;;5054308;28;20112;-75
2023/10/31 18:12:18;;;;;;;6.63;4.13;;;3.40;77.10;;;;;;5004558;28;20042;-76
2023/10/31 18:14:48;;;;;;;26.48;14.02;;;3.30;76.70;;;;;;5001372;28;20065;-76
2023/10/31 18:17:24;;;;;;;19.38;10.65;;;3.40;77.30;;;;;;5010287;28;20055;-75
2023/10/31 18:19:52;;;;;;;5.07;3.88;;;3.50;77.80;;;;;;4997054;28;20079;-76
2023/10/31 18:22:20;;;;;;;13.40;8.15;;;3.40;77.50;;;;;;5018387;28;20045;-75
2023/10/31 18:24:48;;;;;;;5.97;4.28;;;3.40;77.70;;;;;;5014042;28;20046;-75
2023/10/31 18:27:16;;;;;;;5.10;4.00;;;3.40;77.90;;;;;;5026600;28;20453;-76
2023/10/31 18:29:44;;;;;;;4.18;3.63;;;3.90;90.40;;;;;;5012546;28;20038;-77
2023/10/31 18:32:11;;;;;;;6.15;3.65;;;3.50;77.90;;;;;;5009704;28;20549;-82
2023/10/31 18:34:40;;;;;;;3.83;3.10;;;3.40;78.00;;;;;;5000581;28;20140;-81
2023/10/31 18:37:12;;;;;;;7.78;4.28;;;3.40;78.30;;;;;;4997664;28;20084;-82
2023/10/31 18:39:42;;;;;;;4.78;3.35;;;3.40;78.40;;;;;;5022523;28;20126;-82
2023/10/31 18:42:14;;;;;;;3.80;3.50;;;3.40;78.30;;;;;;5018283;28;20049;-81
2023/10/31 18:44:42;;;;;;;3.20;2.90;;;3.40;78.30;;;;;;5043913;28;20054;-81
2023/10/31 18:47:11;;;;;;;3.72;3.38;;;3.40;78.90;;;;;;5009375;28;20502;-82
2023/10/31 18:49:42;;;;;;;5.43;3.22;;;3.40;78.50;;;;;;5011208;28;20058;-82
2023/10/31 18:52:10;;;;;;;3.33;3.03;;;3.40;79.10;;;;;;5008564;28;20046;-82
2023/10/31 18:54:39;;;;;;;3.65;3.35;;;3.50;78.80;;;;;;5014109;28;20145;-82
2023/10/31 18:57:10;;;;;;;3.45;2.95;;;3.50;78.50;;;;;;5033332;28;20045;-84
2023/10/31 18:59:38;;;;;;;3.90;3.10;;;3.60;78.00;;;;;;5005112;28;20104;-83
2023/10/31 19:02:07;;;;;;;3.50;3.20;;;3.60;77.90;;;;;;5011190;28;20050;-83
2023/10/31 19:04:35;;;;;;;5.03;3.22;;;3.70;77.80;;;;;;5014067;28;20132;-80
2023/10/31 19:07:04;;;;;;;3.97;3.10;;;3.70;78.20;;;;;;5021822;28;20041;-80
2023/10/31 19:09:32;;;;;;;4.22;3.75;;;3.80;77.90;;;;;;5008102;28;20112;-81
2023/10/31 19:12:00;;;;;;;3.28;2.92;;;3.70;77.70;;;;;;5009026;28;20050;-82
2023/10/31 19:14:31;;;;;;;3.17;2.88;;;3.70;77.70;;;;;;5028819;28;20149;-83
2023/10/31 19:16:59;;;;;;;4.25;3.35;;;3.70;78.20;;;;;;5010991;28;20107;-80
2023/10/31 19:19:26;;;;;;;4.50;3.47;;;3.80;78.20;;;;;;5005310;28;20050;-79
2023/10/31 19:21:54;;;;;;;3.47;3.13;;;3.80;78.60;;;;;;5007895;28;20056;-81
2023/10/31 19:24:26;;;;;;;4.85;2.88;;;3.80;78.20;;;;;;4999669;28;20058;-80
2023/10/31 19:26:53;;;;;;;3.08;2.80;;;3.80;78.40;;;;;;5018183;28;20058;-79
2023/10/31 19:29:21;;;;;;;4.18;2.90;;;3.90;78.30;;;;;;5009742;28;20056;-81
2023/10/31 19:31:57;;;;;;;3.50;3.20;;;3.90;78.20;;;;;;5007884;28;20513;-82
2023/10/31 19:34:40;;;;;;;5.60;3.10;;;3.90;78.10;;;;;;4998763;28;20537;-82
2023/10/31 19:37:26;;;;;;;3.22;2.92;;;3.90;78.50;;;;;;5014261;28;20050;-81
2023/10/31 19:39:56;;;;;;;5.72;3.28;;;3.90;78.20;;;;;;5008818;28;20088;-80
2023/10/31 19:42:26;;;;;;;3.85;2.67;;;3.90;78.10;;;;;;5008489;28;20140;-80
2023/10/31 19:44:56;;;;;;;3.53;2.83;;;3.90;78.30;;;;;;5009964;28;20510;-81
2023/10/31 19:47:24;;;;;;;3.90;2.55;;;3.90;78.40;;;;;;5036437;28;20049;-80
2023/10/31 19:49:52;;;;;;;3.22;2.40;;;3.90;78.20;;;;;;5024823;28;20132;-80
2023/10/31 19:52:21;;;;;;;3.92;2.28;;;3.90;78.30;;;;;;5028121;28;20077;-81
2023/10/31 19:54:49;;;;;;;3.65;2.92;;;3.90;78.40;;;;;;5002740;28;20058;-81
2023/10/31 19:57:19;;;;;;;5.88;2.83;;;3.90;78.50;;;;;;5032545;28;20050;-79
2023/10/31 19:59:47;;;;;;;2.38;2.17;;;4.00;78.40;;;;;;5006763;28;20088;-81
2023/10/31 20:02:15;;;;;;;2.28;2.03;;;4.00;78.50;;;;;;5005313;28;20074;-80
2023/10/31 20:04:43;;;;;;;3.55;2.50;;;4.00;78.40;;;;;;5015225;28;20484;-80
2023/10/31 20:07:12;;;;;;;4.15;2.60;;;4.00;78.40;;;;;;5050490;28;20054;-81
2023/10/31 20:09:40;;;;;;;3.03;2.20;;;4.00;78.60;;;;;;5011836;28;20050;-80
2023/10/31 20:12:30;;;;;;;2.70;2.38;;;4.00;78.60;;;;;;5031421;28;20046;-82
2023/10/31 20:14:59;;;;;;;3.90;2.38;;;4.00;78.90;;;;;;5004865;28;20050;-80
2023/10/31 20:17:34;;;;;;;2.90;2.30;;;4.00;78.90;;;;;;5040273;28;20053;-80
2023/10/31 20:20:06;;;;;;;2.80;2.20;;;4.10;79.30;;;;;;5009484;28;20090;-79
2023/10/31 20:22:34;;;;;;;3.00;2.30;;;4.20;79.30;;;;;;5035992;28;20053;-80
2023/10/31 20:25:01;;;;;;;2.83;1.88;;;4.20;79.20;;;;;;5041659;28;20054;-81
2023/10/31 20:27:31;;;;;;;3.28;2.03;;;4.20;78.80;;;;;;5009804;28;20050;-80
2023/10/31 20:29:59;;;;;;;2.90;1.90;;;4.20;78.80;;;;;;5009798;28;20061;-82
2023/10/31 20:32:27;;;;;;;2.78;1.95;;;4.20;79.30;;;;;;5016861;28;20050;-82
2023/10/31 20:34:57;;;;;;;2.15;1.98;;;4.20;79.20;;;;;;5000328;28;20050;-80
2023/10/31 20:37:25;;;;;;;2.38;2.17;;;4.30;79.30;;;;;;5029486;28;20046;-81
2023/10/31 20:39:53;;;;;;;4.03;1.75;;;4.20;79.30;;;;;;5011653;28;20112;-83
2023/10/31 20:42:24;;;;;;;2.65;2.20;;;4.30;79.50;;;;;;5006593;28;20073;-83
2023/10/31 20:44:53;;;;;;;2.03;1.90;;;4.30;79.20;;;;;;5005921;28;20050;-82
2023/10/31 20:47:23;;;;;;;1.88;1.77;;;4.40;79.20;;;;;;5001443;28;20626;-80
2023/10/31 20:49:53;;;;;;;2.03;1.90;;;4.40;79.10;;;;;;5008088;28;20053;-82
2023/10/31 20:52:20;;;;;;;1.92;1.75;;;4.40;79.00;;;;;;5010472;28;20053;-82
2023/10/31 20:54:48;;;;;;;2.72;1.95;;;4.40;79.30;;;;;;5010208;28;20042;-83
2023/10/31 20:57:16;;;;;;;2.45;1.88;;;4.40;79.30;;;;;;4994590;28;20510;-81
2023/10/31 20:59:45;;;;;;;1.45;1.33;;;4.50;79.30;;;;;;5019462;28;20049;-81
2023/10/31 21:02:14;;;;;;;1.75;1.52;;;4.50;79.40;;;;;;5032232;28;20099;-81
2023/10/31 21:04:44;;;;;;;2.92;1.88;;;4.50;79.30;;;;;;5033060;28;20049;-82
2023/10/31 21:07:15;;;;;;;3.17;2.90;;;4.50;79.40;;;;;;5011945;28;20049;-80
2023/10/31 21:09:43;;;;;;;3.08;2.72;;;4.50;79.70;;;;;;5028396;28;20046;-82
2023/10/31 21:12:11;;;;;;;2.67;2.47;;;4.60;79.70;;;;;;5013038;28;20065;-80
2023/10/31 21:14:39;;;;;;;2.58;2.13;;;4.50;79.70;;;;;;5018144;28;20414;-82
2023/10/31 21:17:07;;;;;;;2.20;2.00;;;4.50;79.90;;;;;;5011864;28;20060;-82
2023/10/31 21:19:36;;;;;;;1.70;1.60;;;4.60;80.10;;;;;;5013395;28;20082;-83
2023/10/31 21:22:07;;;;;;;1.83;1.60;;;4.60;80.10;;;;;;5012620;28;20519;-82
2023/10/31 21:24:35;;;;;;;2.15;1.95;;;4.70;80.20;;;;;;5010806;28;20616;-81
2023/10/31 21:27:02;;;;;;;1.50;1.40;;;4.70;79.90;;;;;;5027809;28;20124;-82
2023/10/31 21:29:30;;;;;;;7.07;1.65;;;4.70;79.60;;;;;;5011287;28;20520;-82
2023/10/31 21:32:00;;;;;;;2.17;1.95;;;4.70;79.60;;;;;;5028414;28;20452;-81
2023/10/31 21:34:28;;;;;;;1.70;1.45;;;4.80;80.00;;;;;;5016475;28;20514;-81
2023/10/31 21:36:57;;;;;;;1.52;1.20;;;4.70;79.70;;;;;;5016090;28;20046;-83
2023/10/31 21:39:25;;;;;;;2.53;1.83;;;4.80;80.10;;;;;;5021509;28;20065;-81
2023/10/31 21:41:52;;;;;;;2.35;1.55;;;4.80;80.30;;;;;;5020124;28;20065;-81
2023/10/31 21:44:25;;;;;;;2.72;2.15;;;4.80;80.10;;;;;;5018740;28;20081;-82
2023/10/31 21:46:53;;;;;;;3.65;2.20;;;4.80;79.90;;;;;;5034372;28;20148;-82
2023/10/31 21:49:21;;;;;;;2.47;1.70;;;4.80;79.90;;;;;;5026402;28;20058;-82
2023/10/31 21:51:49;;;;;;;1.58;1.48;;;4.80;80.00;;;;;;4992689;28;20042;-83
2023/10/31 21:54:19;;;;;;;1.40;1.30;;;4.80;80.10;;;;;;5013903;28;20046;-81
2023/10/31 21:56:46;;;;;;;1.10;1.00;;;4.90;80.10;;;;;;5025260;28;20055;-82
2023/10/31 21:59:15;;;;;;;2.78;1.70;;;4.90;80.00;;;;;;4993484;28;20054;-83
2023/10/31 22:01:43;;;;;;;1.20;1.10;;;4.90;80.30;;;;;;5019809;28;20061;-83
2023/10/31 22:04:10;;;;;;;2.55;1.10;;;4.90;80.10;;;;;;5011661;28;20042;-82
2023/10/31 22:06:40;;;;;;;1.48;1.00;;;4.90;80.30;;;;;;5007197;28;20042;-82
2023/10/31 22:09:08;;;;;;;1.50;1.40;;;4.90;80.10;;;;;;5023464;28;20418;-82
2023/10/31 22:11:37;;;;;;;0.93;0.90;;;5.00;80.20;;;;;;4994705;28;20050;-83
2023/10/31 22:14:05;;;;;;;0.98;0.90;;;4.90;80.30;;;;;;5041372;28;20553;-83
2023/10/31 22:16:33;;;;;;;2.65;1.20;;;5.00;80.40;;;;;;5010045;28;20467;-83
2023/10/31 22:19:00;;;;;;;1.10;0.90;;;5.00;80.20;;;;;;5011032;28;20046;-83
2023/10/31 22:21:28;;;;;;;0.85;0.85;;;4.90;80.10;;;;;;5010333;28;20106;-83
2023/10/31 22:23:56;;;;;;;1.48;0.95;;;4.90;80.10;;;;;;5008671;28;20045;-83
2023/10/31 22:26:23;;;;;;;3.55;1.00;;;5.00;80.30;;;;;;5010873;28;20042;-83
2023/10/31 22:28:52;;;;;;;0.90;0.90;;;5.00;80.20;;;;;;5013390;28;20485;-83
2023/10/31 22:31:20;;;;;;;0.90;0.90;;;5.00;80.10;;;;;;5010293;28;20056;-83
2023/10/31 22:33:47;;;;;;;1.17;0.80;;;5.00;80.40;;;;;;5006354;28;20081;-82
2023/10/31 22:36:15;;;;;;;1.35;0.70;;;5.00;80.00;;;;;;5010496;28;20080;-84
2023/10/31 22:38:42;;;;;;;0.60;0.60;;;5.00;80.20;;;;;;5013590;28;20050;-81
2023/10/31 22:41:11;;;;;;;0.90;0.90;;;4.90;80.20;;;;;;5007572;28;20113;-84
2023/10/31 22:43:38;;;;;;;1.20;0.88;;;5.00;80.50;;;;;;5004547;28;20406;-84
2023/10/31 22:46:09;;;;;;;2.00;0.93;;;5.00;80.30;;;;;;5013302;28;20041;-82
2023/10/31 22:48:36;;;;;;;2.53;2.20;;;5.00;80.10;;;;;;5007798;28;20120;-82
2023/10/31 22:51:05;;;;;;;1.38;0.90;;;5.10;80.50;;;;;;5008716;28;20038;-83
2023/10/31 22:53:33;;;;;;;0.85;0.60;;;5.10;80.40;;;;;;5009168;28;20042;-83
2023/10/31 22:56:01;;;;;;;2.40;0.77;;;5.10;80.10;;;;;;5009395;28;20499;-82
2023/10/31 22:58:28;;;;;;;1.08;0.98;;;5.10;80.30;;;;;;5009122;28;20152;-82
2023/10/31 23:00:56;;;;;;;2.20;0.55;;;5.10;80.60;;;;;;5010754;28;20070;-81
2023/10/31 23:03:25;;;;;;;2.60;0.70;;;5.10;80.40;;;;;;5009732;28;20155;-81
2023/10/31 23:05:55;;;;;;;0.95;0.80;;;5.10;80.40;;;;;;5009036;28;20146;-80
2023/10/31 23:08:22;;;;;;;1.55;0.75;;;5.20;80.40;;;;;;5008088;28;20053;-82
2023/10/31 23:10:51;;;;;;;0.90;0.90;;;5.20;80.50;;;;;;5008898;28;20505;-81
2023/10/31 23:13:19;;;;;;;0.80;0.80;;;5.20;80.70;;;;;;5021382;28;20494;-82
2023/10/31 23:15:46;;;;;;;0.70;0.70;;;5.20;80.50;;;;;;5042309;28;20514;-80
2023/10/31 23:18:14;;;;;;;2.28;1.00;;;5.20;80.50;;;;;;5041152;28;20548;-82
2023/10/31 23:20:42;;;;;;;1.10;0.90;;;5.20;80.90;;;;;;5020537;28;20104;-80
2023/10/31 23:23:15;;;;;;;1.42;0.88;;;5.20;80.70;;;;;;5020733;28;20057;-80
2023/10/31 23:25:44;;;;;;;1.13;0.88;;;5.20;80.40;;;;;;5023865;28;20049;-81
2023/10/31 23:28:11;;;;;;;1.50;0.70;;;5.20;80.60;;;;;;5024282;28;20148;-82
2023/10/31 23:30:39;;;;;;;0.52;0.50;;;5.30;80.60;;;;;;5015284;28;20502;-81
2023/10/31 23:33:07;;;;;;;2.38;0.77;;;5.30;80.60;;;;;;5012482;28;20073;-81
2023/10/31 23:35:34;;;;;;;1.58;0.60;;;5.30;80.70;;;;;;5012461;28;20141;-82
2023/10/31 23:38:03;;;;;;;2.30;0.60;;;5.30;80.50;;;;;;5005520;28;20046;-81
2023/10/31 23:40:31;;;;;;;0.70;0.70;;;5.30;80.50;;;;;;4990367;28;20042;-81
2023/10/31 23:42:58;;;;;;;0.70;0.70;;;5.30;80.40;;;;;;5009596;28;20058;-82
2023/10/31 23:45:26;;;;;;;0.60;0.60;;;5.30;80.60;;;;;;5009113;28;20049;-82
2023/10/31 23:47:55;;;;;;;1.23;0.90;;;5.30;80.60;;;;;;5037051;28;20046;-81
2023/10/31 23:50:23;;;;;;;0.68;0.68;;;5.40;80.80;;;;;;5009142;28;20659;-80
2023/10/31 23:52:50;;;;;;;0.90;0.90;;;5.40;80.50;;;;;;5011816;28;20050;-82
2023/10/31 23:55:20;;;;;;;1.13;1.02;;;5.40;80.50;;;;;;5030740;28;20053;-82
2023/10/31 23:57:47;;;;;;;1.05;0.95;;;5.40;80.30;;;;;;5029756;28;20519;-82
